Time;durP1;ratioP1;P1;durP2;ratioP2;P2;SDS_P1;SDS_P2;PMS_P1;PMS_P2;Temp;Humidity;BMP_temperature;BMP_pressure;BME280_temperature;BME280_humidity;BME280_pressure;Samples;Min_cycle;Max_cycle;Signal;HPM_P1;HPM_P2
2021/12/21 00:01:36;;;;;;;;;;;;;;;25.65;55.28;96979.23;605793;233;68481;-67
2021/12/21 00:04:01;;;;;;;;;;;;;;;25.65;59.25;96973.85;598265;236;64928;-67
2021/12/21 00:06:30;;;;;;;;;;;;;;;25.62;59.51;96971.77;605072;234;68411;-67
2021/12/21 00:08:57;;;;;;;;;;;;;;;25.60;60.81;96976.65;605120;234;68418;-67
2021/12/21 00:11:25;;;;;;;;;;;;;;;25.58;59.81;96978.84;605121;232;65025;-67
2021/12/21 00:14:12;;;;;;;;;;;;;;;25.58;59.00;96985.02;605103;234;68336;-67
2021/12/21 00:16:48;;;;;;;;;;;;;;;25.58;61.38;96979.62;597438;237;66559;-68
2021/12/21 00:21:39;;;;;;;;;;;;;;;25.56;59.27;96984.51;605115;234;68336;-67
2021/12/21 00:24:12;;;;;;;;;;;;;;;25.56;58.71;96994.48;605076;234;68174;-66
2021/12/21 00:26:34;;;;;;;;;;;;;;;25.54;59.87;96994.80;598020;237;65163;-69
2021/12/21 00:29:02;;;;;;;;;;;;;;;25.54;60.04;97007.46;605100;234;68346;-66
2021/12/21 00:31:31;;;;;;;;;;;;;;;25.52;59.70;97002.37;605059;234;68522;-66
2021/12/21 00:33:59;;;;;;;;;;;;;;;25.51;59.77;96999.97;605074;234;62980;-66
2021/12/21 00:36:28;;;;;;;;;;;;;;;25.49;60.42;97008.36;605076;234;66129;-66
2021/12/21 00:38:56;;;;;;;;;;;;;;;25.51;59.92;97013.42;605130;234;68552;-66
2021/12/21 00:41:27;;;;;;;;;;;;;;;25.51;59.69;97010.73;605083;234;65186;-66
2021/12/21 00:43:55;;;;;;;;;;;;;;;25.51;59.60;97006.16;605095;234;66160;-66
2021/12/21 00:46:22;;;;;;;;;;;;;;;25.49;59.15;97008.36;605059;234;68361;-66
2021/12/21 00:48:56;;;;;;;;;;;;;;;25.49;56.00;97007.56;605071;234;62786;-65
2021/12/21 00:51:23;;;;;;;;;;;;;;;25.47;61.42;97011.33;605088;234;68220;-67
2021/12/21 00:53:51;;;;;;;;;;;;;;;25.46;60.65;97019.72;605081;234;68487;-66
2021/12/21 00:56:19;;;;;;;;;;;;;;;25.44;60.38;97021.91;605078;234;65128;-66
2021/12/21 00:58:46;;;;;;;;;;;;;;;25.44;60.23;97028.08;605087;234;68836;-66
2021/12/21 01:01:14;;;;;;;;;;;;;;;25.43;63.86;97023.80;607371;233;68476;-67
2021/12/21 01:03:46;;;;;;;;;;;;;;;25.42;59.94;97022.19;608597;233;65016;-66
2021/12/21 01:06:23;;;;;;;;;;;;;;;25.41;60.31;97009.84;608491;233;66283;-63
2021/12/21 01:11:37;;;;;;;;;;;;;;;25.41;59.33;97022.51;608553;233;62785;-63
2021/12/21 01:14:17;;;;;;;;;;;;;;;25.41;60.13;97023.30;608438;233;66162;-63
2021/12/21 01:16:40;;;;;;;;;;;;;;;25.38;60.87;97023.90;607923;233;68458;-63
2021/12/21 01:21:42;;;;;;;;;;;;;;;25.37;62.17;97025.01;608594;233;68592;-63
2021/12/21 01:29:32;;;;;;;;;;;;;;;25.34;60.55;97017.51;608569;233;68560;-61
2021/12/21 01:32:04;;;;;;;;;;;;;;;25.32;64.85;97025.11;608202;233;68351;-63
2021/12/21 01:34:37;;;;;;;;;;;;;;;25.30;62.33;97016.53;601288;235;64861;-62
2021/12/21 01:37:01;;;;;;;;;;;;;;;25.32;62.12;97011.66;600828;236;68290;-62
2021/12/21 01:42:02;;;;;;;;;;;;;;;25.30;63.86;97013.84;608586;233;62748;-62
2021/12/21 01:49:55;;;;;;;;;;;;;;;25.27;64.17;97014.44;608557;233;62845;-62
2021/12/21 01:52:24;;;;;;;;;;;;;;;25.28;64.61;97017.92;608629;233;68276;-62
2021/12/21 01:54:52;;;;;;;;;;;;;;;25.29;58.29;97019.50;608556;233;68015;-62
2021/12/21 01:57:20;;;;;;;;;;;;;;;25.27;61.48;97022.51;608551;233;62659;-63
2021/12/21 01:59:49;;;;;;;;;;;;;;;25.25;62.09;97016.62;608528;233;68091;-62
2021/12/21 02:02:19;;;;;;;;;;;;;;;25.24;61.98;97015.04;608539;233;68346;-62
2021/12/21 02:04:46;;;;;;;;;;;;;;;25.24;63.81;97018.52;608550;233;63018;-62
2021/12/21 02:07:14;;;;;;;;;;;;;;;25.23;63.57;97016.11;608604;233;65859;-62
2021/12/21 02:09:42;;;;;;;;;;;;;;;25.23;61.38;97021.50;608532;233;68524;-62
2021/12/21 02:12:14;;;;;;;;;;;;;;;25.22;65.73;97019.91;608491;233;65048;-62
2021/12/21 02:14:42;;;;;;;;;;;;;;;25.22;60.54;97025.29;608550;233;68597;-63
2021/12/21 02:17:42;;;;;;;;;;;;;;;25.21;61.07;97023.71;608548;233;66410;-67
2021/12/21 02:20:12;;;;;;;;;;;;;;;25.21;59.89;97026.40;607730;233;65093;-68
2021/12/21 02:22:32;;;;;;;;;;;;;;;25.21;61.20;97024.50;608087;233;66434;-68
2021/12/21 02:27:54;;;;;;;;;;;;;;;25.20;64.13;97027.47;594671;237;65016;-68
2021/12/21 02:30:19;;;;;;;;;;;;;;;25.18;61.99;97033.17;599490;235;68364;-69
2021/12/21 02:32:41;;;;;;;;;;;;;;;25.14;63.83;97032.12;601206;236;68481;-69
2021/12/21 02:35:09;;;;;;;;;;;;;;;25.15;59.27;97030.25;608552;233;65083;-67
2021/12/21 02:37:36;;;;;;;;;;;;;;;25.14;62.53;97031.33;608528;233;68462;-68
2021/12/21 02:40:05;;;;;;;;;;;;;;;25.13;59.08;97033.23;608544;231;68497;-67
2021/12/21 02:42:32;;;;;;;;;;;;;;;25.14;59.67;97034.02;608551;233;65067;-67
2021/12/21 02:44:59;;;;;;;;;;;;;;;25.13;61.33;97037.81;608555;233;68313;-67
2021/12/21 02:47:27;;;;;;;;;;;;;;;25.11;62.85;97050.75;608496;231;68252;-67
2021/12/21 02:49:54;;;;;;;;;;;;;;;25.12;62.69;97036.99;608582;233;65032;-67
2021/12/21 02:52:22;;;;;;;;;;;;;;;25.13;60.74;97038.61;608549;233;68506;-67
2021/12/21 02:54:50;;;;;;;;;;;;;;;25.13;63.45;97037.81;608539;231;68253;-62
2021/12/21 02:57:17;;;;;;;;;;;;;;;25.10;61.89;97038.38;608497;233;65017;-63
2021/12/21 02:59:45;;;;;;;;;;;;;;;25.09;65.50;97042.17;608294;233;68763;-63
2021/12/21 03:02:12;;;;;;;;;;;;;;;25.09;61.46;97047.55;605064;234;69024;-62
2021/12/21 03:04:41;;;;;;;;;;;;;;;25.07;58.93;97031.70;605051;234;64722;-62
2021/12/21 03:09:59;;;;;;;;;;;;;;;25.08;60.98;97051.34;592410;237;66359;-66
2021/12/21 03:14:55;;;;;;;;;;;;;;;25.04;64.42;97051.13;605053;234;66402;-67
2021/12/21 03:17:23;;;;;;;;;;;;;;;25.04;62.56;97056.50;605085;234;66482;-66
2021/12/21 03:19:50;;;;;;;;;;;;;;;25.02;63.17;97054.13;605070;234;64656;-66
2021/12/21 03:22:18;;;;;;;;;;;;;;;25.06;60.28;97058.91;605041;234;68677;-66
2021/12/21 03:24:45;;;;;;;;;;;;;;;25.00;63.81;97069.75;605048;234;68641;-66
2021/12/21 03:27:13;;;;;;;;;;;;;;;24.99;62.76;97062.78;604998;234;65072;-66
2021/12/21 03:29:40;;;;;;;;;;;;;;;24.97;62.05;97062.28;605086;234;69028;-66
2021/12/21 03:32:08;;;;;;;;;;;;;;;24.98;63.01;97063.86;605023;234;68551;-66
2021/12/21 03:34:36;;;;;;;;;;;;;;;24.98;65.32;97068.45;605048;234;64785;-66
2021/12/21 03:37:10;;;;;;;;;;;;;;;24.96;63.29;97076.00;605065;234;68788;-67
2021/12/21 03:39:33;;;;;;;;;;;;;;;24.95;66.21;97067.14;604800;234;68802;-67
2021/12/21 03:42:00;;;;;;;;;;;;;;;24.96;67.07;97070.62;605100;234;65023;-67
2021/12/21 03:44:28;;;;;;;;;;;;;;;24.92;63.48;97062.36;605057;234;68632;-67
2021/12/21 03:46:57;;;;;;;;;;;;;;;24.94;65.24;97065.56;605049;234;68699;-67
2021/12/21 03:52:06;;;;;;;;;;;;;;;24.90;66.86;97069.91;604994;234;68842;-68
2021/12/21 03:54:33;;;;;;;;;;;;;;;24.92;61.11;97077.70;605017;234;68704;-68
2021/12/21 03:57:01;;;;;;;;;;;;;;;24.90;64.44;97082.56;605089;234;64890;-68
2021/12/21 03:59:29;;;;;;;;;;;;;;;24.90;63.67;97088.73;605029;234;66636;-68
2021/12/21 04:01:59;;;;;;;;;;;;;;;24.87;63.17;97077.78;605114;232;46773;-68
2021/12/21 04:04:27;;;;;;;;;;;;;;;24.85;63.07;97078.06;601682;236;65207;-68
2021/12/21 04:06:55;;;;;;;;;;;;;;;24.85;66.69;97080.75;601698;236;66459;-68
2021/12/21 04:09:22;;;;;;;;;;;;;;;24.85;66.78;97083.44;601751;236;66360;-68
2021/12/21 04:11:50;;;;;;;;;;;;;;;24.85;64.83;97083.44;601696;236;62918;-68
2021/12/21 04:14:18;;;;;;;;;;;;;;;24.84;63.11;97084.54;601691;236;68766;-68
2021/12/21 04:16:46;;;;;;;;;;;;;;;24.83;65.44;97082.95;601642;236;68934;-68
2021/12/21 04:19:13;;;;;;;;;;;;;;;24.81;66.17;97085.13;601671;236;65003;-68
2021/12/21 04:21:41;;;;;;;;;;;;;;;24.81;65.91;97082.45;601745;236;68383;-68
2021/12/21 04:24:09;;;;;;;;;;;;;;;24.79;65.46;97071.97;601696;236;68717;-68
2021/12/21 04:26:36;;;;;;;;;;;;;;;24.79;62.90;97084.63;601664;236;65059;-68
2021/12/21 04:29:04;;;;;;;;;;;;;;;24.79;65.54;97082.73;601703;233;68796;-68
2021/12/21 04:31:31;;;;;;;;;;;;;;;24.77;65.43;97092.17;601657;235;66606;-69
2021/12/21 04:33:59;;;;;;;;;;;;;;;24.77;66.28;97084.11;601744;235;62950;-68
2021/12/21 04:36:26;;;;;;;;;;;;;;;24.76;66.28;97091.38;601746;235;68101;-69
2021/12/21 04:38:55;;;;;;;;;;;;;;;24.75;64.25;97089.80;601740;235;68546;-67
2021/12/21 04:41:25;;;;;;;;;;;;;;;24.75;63.58;97099.75;601708;235;64861;-67
2021/12/21 04:43:52;;;;;;;;;;;;;;;24.73;65.41;97099.23;601672;235;68918;-67
2021/12/21 04:46:20;;;;;;;;;;;;;;;24.74;63.13;97096.23;601717;235;68731;-68
2021/12/21 04:48:47;;;;;;;;;;;;;;;24.74;64.44;97104.30;601738;235;65068;-67
2021/12/21 04:51:15;;;;;;;;;;;;;;;24.74;64.57;97101.62;601754;235;68870;-67
2021/12/21 04:53:42;;;;;;;;;;;;;;;24.74;63.01;97114.27;601718;235;66375;-68
2021/12/21 04:56:10;;;;;;;;;;;;;;;24.73;64.48;97109.98;601725;235;62934;-68
2021/12/21 04:58:38;;;;;;;;;;;;;;;24.72;65.24;97111.88;601700;235;66544;-68
2021/12/21 05:01:05;;;;;;;;;;;;;;;24.70;66.12;97110.58;602207;235;66723;-68
2021/12/21 05:03:33;;;;;;;;;;;;;;;24.69;65.46;97114.34;602474;235;65034;-68
2021/12/21 05:06:01;;;;;;;;;;;;;;;24.69;64.68;97119.71;602475;235;68795;-68
2021/12/21 05:08:33;;;;;;;;;;;;;;;24.68;64.20;97128.88;602479;235;68623;-68
2021/12/21 05:11:04;;;;;;;;;;;;;;;24.68;66.60;97121.61;602304;235;65114;-68
2021/12/21 05:13:30;;;;;;;;;;;;;;;24.66;64.64;97125.67;602422;235;66747;-68
2021/12/21 05:15:58;;;;;;;;;;;;;;;24.67;65.65;97127.29;602488;235;68628;-68
2021/12/21 05:18:26;;;;;;;;;;;;;;;24.65;66.85;97124.88;602486;235;65087;-69
2021/12/21 05:20:54;;;;;;;;;;;;;;;24.65;65.10;97135.63;602474;235;68896;-70
2021/12/21 05:23:22;;;;;;;;;;;;;;;24.64;66.58;97139.42;602418;235;68433;-69
2021/12/21 05:25:50;;;;;;;;;;;;;;;24.62;65.39;97140.80;602512;235;65030;-68
2021/12/21 05:28:17;;;;;;;;;;;;;;;24.62;63.64;97148.86;602469;235;66800;-71
2021/12/21 05:30:45;;;;;;;;;;;;;;;24.61;63.27;97148.06;602456;235;69116;-68
2021/12/21 05:33:14;;;;;;;;;;;;;;;24.62;64.94;97164.98;602491;235;65050;-69
2021/12/21 05:35:42;;;;;;;;;;;;;;;24.58;61.82;97160.19;602462;235;68962;-68
2021/12/21 05:38:12;;;;;;;;;;;;;;;24.61;56.80;97157.98;602515;235;66550;-68
2021/12/21 05:40:44;;;;;;;;;;;;;;;24.65;58.28;97167.08;602165;235;66621;-68
2021/12/21 05:43:12;;;;;;;;;;;;;;;24.64;61.43;97168.98;601600;235;66764;-68
2021/12/21 05:45:40;;;;;;;;;;;;;;;24.63;59.17;97166.56;602430;235;68480;-68
2021/12/21 05:48:08;;;;;;;;;;;;;;;24.64;55.72;97168.19;602524;235;65077;-68
2021/12/21 05:50:36;;;;;;;;;;;;;;;24.63;62.52;97171.94;602525;235;68289;-68
2021/12/21 05:53:04;;;;;;;;;;;;;;;24.62;59.87;97173.84;602527;235;66317;-68
2021/12/21 05:55:31;;;;;;;;;;;;;;;24.63;61.46;97185.38;602394;235;62998;-68
2021/12/21 05:57:59;;;;;;;;;;;;;;;24.62;60.87;97176.52;602507;235;66642;-68
2021/12/21 06:00:28;;;;;;;;;;;;;;;24.63;61.70;97185.38;601783;235;68426;-68
2021/12/21 06:02:55;;;;;;;;;;;;;;;24.61;61.09;97184.86;601679;235;64839;-68
2021/12/21 06:05:23;;;;;;;;;;;;;;;24.60;63.03;97181.37;594983;235;66259;-68
2021/12/21 06:07:53;;;;;;;;;;;;;;;24.61;62.10;97190.23;601736;235;68305;-68
2021/12/21 06:10:35;;;;;;;;;;;;;;;24.60;61.62;97197.50;601682;235;64962;-69
2021/12/21 06:13:13;;;;;;;;;;;;;;;24.62;62.88;97199.91;601150;235;68964;-68
2021/12/21 06:15:33;;;;;;;;;;;;;;;24.61;62.83;97193.75;600717;235;66760;-68
2021/12/21 06:24:11;;;;;;;;;;;;;;;24.59;63.41;97218.20;601664;235;66837;-68
2021/12/21 06:26:10;;;;;;;;;;;;;;;24.59;63.10;97218.20;600702;235;65074;-68
2021/12/21 06:28:38;;;;;;;;;;;;;;;24.60;62.78;97221.69;601720;235;68436;-69
2021/12/21 06:31:05;;;;;;;;;;;;;;;24.62;64.08;97224.09;601701;235;66754;-69
2021/12/21 06:33:33;;;;;;;;;;;;;;;24.63;63.48;97223.00;601692;235;65315;-69
2021/12/21 06:36:01;;;;;;;;;;;;;;;24.63;64.11;97225.69;601758;235;66685;-69
2021/12/21 06:38:28;;;;;;;;;;;;;;;24.64;62.56;97224.61;601701;235;69171;-69
2021/12/21 06:40:56;;;;;;;;;;;;;;;24.63;65.09;97231.06;601670;235;65050;-68
2021/12/21 06:43:24;;;;;;;;;;;;;;;24.63;66.35;97231.06;601679;235;68876;-68
2021/12/21 06:46:04;;;;;;;;;;;;;;;24.62;65.95;97232.16;601690;235;69041;-68
2021/12/21 06:53:48;;;;;;;;;;;;;;;24.61;68.75;97246.66;601554;235;47382;-70
2021/12/21 06:56:16;;;;;;;;;;;;;;;24.58;67.65;97248.86;600614;235;65047;-67
2021/12/21 06:58:44;;;;;;;;;;;;;;;24.57;66.99;97255.30;601632;235;68739;-67
2021/12/21 07:01:13;;;;;;;;;;;;;;;24.59;67.00;97255.82;601667;235;68566;-68
2021/12/21 07:03:42;;;;;;;;;;;;;;;24.60;64.58;97261.98;601540;235;62958;-67
2021/12/21 07:06:09;;;;;;;;;;;;;;;24.67;66.35;97259.76;601743;235;66299;-67
2021/12/21 07:08:54;;;;;;;;;;;;;;;24.61;68.51;97260.92;601641;235;66474;-64
2021/12/21 07:11:29;;;;;;;;;;;;;;;24.64;65.49;97264.92;601349;235;65005;-64
2021/12/21 07:19:19;;;;;;;;;;;;;;;24.74;59.17;97279.00;601682;235;64162;-68
2021/12/21 07:21:47;;;;;;;;;;;;;;;24.74;60.52;97272.83;601772;235;68808;-66
2021/12/21 07:24:14;;;;;;;;;;;;;;;24.75;59.76;97280.61;601638;235;68506;-69
2021/12/21 07:26:43;;;;;;;;;;;;;;;24.80;55.39;97279.76;601656;235;62949;-65
2021/12/21 07:29:10;;;;;;;;;;;;;;;24.87;56.81;97276.70;601719;235;68860;-69
2021/12/21 07:31:38;;;;;;;;;;;;;;;24.88;53.99;97284.48;601630;235;68506;-68
2021/12/21 07:34:05;;;;;;;;;;;;;;;24.84;55.94;97283.45;601738;235;65035;-69
2021/12/21 07:36:34;;;;;;;;;;;;;;;24.87;54.67;97285.56;601613;235;68996;-68
2021/12/21 07:39:03;;;;;;;;;;;;;;;24.89;56.01;97285.28;601615;235;66438;-69
2021/12/21 07:41:30;;;;;;;;;;;;;;;24.96;56.09;97297.28;601636;235;62837;-68
2021/12/21 07:43:58;;;;;;;;;;;;;;;25.03;58.44;97297.70;601690;235;66590;-68
2021/12/21 07:46:25;;;;;;;;;;;;;;;25.03;57.45;97303.08;601555;236;66579;-65
2021/12/21 07:48:53;;;;;;;;;;;;;;;25.08;58.27;97298.73;601694;236;63058;-69
2021/12/21 07:51:21;;;;;;;;;;;;;;;25.05;60.14;97297.42;601679;236;68797;-70
2021/12/21 07:53:48;;;;;;;;;;;;;;;25.06;56.63;97314.35;601680;236;68422;-69
2021/12/21 07:56:17;;;;;;;;;;;;;;;25.07;58.89;97310.56;601663;236;65099;-69
2021/12/21 07:58:46;;;;;;;;;;;;;;;25.07;55.85;97318.63;601660;236;68770;-68
2021/12/21 08:01:13;;;;;;;;;;;;;;;25.11;55.55;97311.59;602074;235;69195;-70
2021/12/21 08:03:41;;;;;;;;;;;;;;;25.08;56.01;97331.00;602417;235;62938;-69
2021/12/21 08:06:12;;;;;;;;;;;;;;;25.10;57.28;97324.25;602506;235;68639;-68
2021/12/21 08:08:42;;;;;;;;;;;;;;;25.08;56.14;97323.73;603693;235;68611;-68
2021/12/21 08:13:47;;;;;;;;;;;;;;;25.10;55.30;97318.87;597926;235;69018;-68
2021/12/21 08:16:16;;;;;;;;;;;;;;;25.10;57.10;97318.05;603704;234;48942;-68
2021/12/21 08:18:44;;;;;;;;;;;;;;;25.07;56.06;97326.70;603748;235;63085;-68
2021/12/21 08:21:16;;;;;;;;;;;;;;;25.09;55.88;97329.91;603719;235;68540;-71
2021/12/21 08:23:41;;;;;;;;;;;;;;;25.09;56.34;97333.39;603642;235;68775;-69
2021/12/21 08:26:08;;;;;;;;;;;;;;;25.08;56.55;97331.00;603630;235;65046;-70
2021/12/21 08:28:36;;;;;;;;;;;;;;;25.09;56.38;97349.52;603737;235;68984;-70
2021/12/21 08:31:04;;;;;;;;;;;;;;;25.11;57.15;97343.87;603766;235;68718;-70
2021/12/21 08:33:31;;;;;;;;;;;;;;;25.09;58.05;97352.20;603733;235;62941;-71
2021/12/21 08:35:59;;;;;;;;;;;;;;;25.08;55.85;97361.38;603717;235;66648;-68
2021/12/21 08:38:26;;;;;;;;;;;;;;;25.08;57.09;97365.96;603764;235;66621;-69
2021/12/21 08:40:57;;;;;;;;;;;;;;;25.07;56.40;97364.34;603829;235;62889;-68
2021/12/21 08:43:28;;;;;;;;;;;;;;;25.08;57.38;97364.06;603649;235;68671;-69
2021/12/21 08:45:56;;;;;;;;;;;;;;;25.07;56.84;97365.14;603714;235;68837;-70
2021/12/21 08:48:25;;;;;;;;;;;;;;;25.09;57.17;97368.34;603733;235;65233;-69
2021/12/21 08:50:54;;;;;;;;;;;;;;;25.09;57.49;97359.48;603681;235;66719;-69
2021/12/21 08:53:23;;;;;;;;;;;;;;;25.07;57.43;97362.45;603753;235;68677;-68
2021/12/21 08:55:51;;;;;;;;;;;;;;;25.12;56.53;97364.28;603661;235;68057;-63
2021/12/21 08:58:19;;;;;;;;;;;;;;;25.10;56.81;97363.76;603705;235;66717;-68
2021/12/21 09:00:48;;;;;;;;;;;;;;;25.03;56.66;97354.17;602456;235;68475;-69
2021/12/21 09:03:16;;;;;;;;;;;;;;;25.06;57.05;97360.06;607855;233;63109;-69
2021/12/21 09:05:44;;;;;;;;;;;;;;;25.07;55.68;97362.45;607906;233;68863;-70
2021/12/21 09:08:11;;;;;;;;;;;;;;;25.04;55.71;97363.03;608041;233;66168;-68
2021/12/21 09:10:40;;;;;;;;;;;;;;;25.05;55.34;97358.47;607936;233;64979;-68
2021/12/21 09:13:09;;;;;;;;;;;;;;;25.02;55.27;97366.02;607930;233;66678;-67
2021/12/21 09:15:37;;;;;;;;;;;;;;;25.03;55.55;97361.44;607923;233;66957;-68
2021/12/21 09:18:05;;;;;;;;;;;;;;;25.05;56.32;97366.55;607930;233;65051;-70
2021/12/21 09:20:34;;;;;;;;;;;;;;;25.07;55.66;97362.45;608016;233;68816;-69
2021/12/21 09:23:01;;;;;;;;;;;;;;;25.06;55.61;97363.55;607911;233;68518;-69
2021/12/21 09:25:29;;;;;;;;;;;;;;;25.05;54.95;97361.95;607790;233;62665;-70
2021/12/21 09:27:57;;;;;;;;;;;;;;;24.97;55.47;97371.46;607956;233;66696;-69
2021/12/21 09:30:26;;;;;;;;;;;;;;;24.98;54.96;97377.63;608002;233;68757;-66
2021/12/21 09:32:53;;;;;;;;;;;;;;;25.00;55.57;97373.57;607937;233;64919;-67
2021/12/21 09:35:21;;;;;;;;;;;;;;;25.07;56.83;97361.66;608028;233;68333;-68
2021/12/21 09:37:49;;;;;;;;;;;;;;;25.08;56.79;97365.96;607891;233;68655;-67
2021/12/21 09:40:21;;;;;;;;;;;;;;;25.11;54.22;97362.69;607867;233;62955;-67
2021/12/21 09:42:49;;;;;;;;;;;;;;;25.12;55.98;97359.70;607992;233;66576;-67
2021/12/21 09:45:17;;;;;;;;;;;;;;;25.11;55.39;97357.31;607891;233;68472;-66
2021/12/21 09:47:45;;;;;;;;;;;;;;;25.12;55.41;97364.28;607982;233;65035;-67
2021/12/21 09:50:14;;;;;;;;;;;;;;;25.11;55.46;97357.31;607955;233;68871;-67
2021/12/21 09:52:41;;;;;;;;;;;;;;;25.10;55.48;97347.63;607920;233;66552;-66
2021/12/21 09:55:10;;;;;;;;;;;;;;;25.10;55.09;97361.90;607968;233;65193;-68
2021/12/21 09:57:38;;;;;;;;;;;;;;;25.09;55.72;97360.28;607999;233;66385;-66
2021/12/21 10:00:07;;;;;;;;;;;;;;;25.10;55.58;97358.38;607953;233;68484;-66
2021/12/21 10:02:35;;;;;;;;;;;;;;;25.11;55.10;97358.11;601554;235;63394;-66
2021/12/21 10:05:06;;;;;;;;;;;;;;;25.13;54.75;97366.69;607953;233;68463;-68
2021/12/21 10:07:34;;;;;;;;;;;;;;;25.11;53.79;97363.48;607949;233;66534;-68
2021/12/21 10:10:06;;;;;;;;;;;;;;;25.12;54.85;97364.28;608003;233;65284;-66
2021/12/21 10:12:36;;;;;;;;;;;;;;;25.13;54.20;97377.45;608028;233;66348;-68
2021/12/21 10:15:08;;;;;;;;;;;;;;;25.08;57.09;97374.03;601582;235;66478;-67
2021/12/21 10:17:35;;;;;;;;;;;;;;;25.06;54.22;97381.58;607985;233;63064;-68
2021/12/21 10:20:06;;;;;;;;;;;;;;;25.07;54.15;97377.78;607941;233;66370;-67
2021/12/21 10:22:33;;;;;;;;;;;;;;;25.09;53.82;97372.92;601659;235;68373;-67
2021/12/21 10:25:01;;;;;;;;;;;;;;;25.11;55.02;97378.83;608005;233;65123;-65
2021/12/21 10:27:29;;;;;;;;;;;;;;;25.10;55.12;97371.83;608027;233;68798;-65
2021/12/21 10:30:00;;;;;;;;;;;;;;;25.07;54.98;97367.03;607836;233;69012;-67
2021/12/21 10:32:29;;;;;;;;;;;;;;;25.07;55.69;97372.41;607991;233;65130;-69
2021/12/21 10:34:59;;;;;;;;;;;;;;;25.14;55.42;97380.94;607977;233;68791;-67
2021/12/21 10:37:28;;;;;;;;;;;;;;;25.15;55.47;97366.42;607940;233;68664;-68
2021/12/21 10:40:03;;;;;;;;;;;;;;;25.16;56.04;97365.34;607926;233;63806;-68
2021/12/21 10:42:31;;;;;;;;;;;;;;;25.14;56.69;97367.48;607956;233;68638;-68
2021/12/21 10:45:06;;;;;;;;;;;;;;;25.13;55.24;97365.90;607934;233;68356;-68
2021/12/21 10:47:34;;;;;;;;;;;;;;;25.13;56.60;97365.90;601563;235;63803;-71
2021/12/21 10:50:02;;;;;;;;;;;;;;;25.11;56.47;97365.38;607881;233;68485;-68
2021/12/21 10:52:31;;;;;;;;;;;;;;;25.07;56.48;97369.72;607934;233;68530;-68
2021/12/21 10:54:58;;;;;;;;;;;;;;;25.11;55.32;97368.07;607892;233;62847;-68
2021/12/21 10:57:33;;;;;;;;;;;;;;;25.11;55.54;97373.45;607843;233;66619;-68
2021/12/21 10:59:57;;;;;;;;;;;;;;;25.10;54.75;97378.03;607698;233;66615;-67
2021/12/21 11:02:29;;;;;;;;;;;;;;;25.11;55.03;97355.42;607992;233;65199;-66
2021/12/21 11:05:03;;;;;;;;;;;;;;;25.13;54.68;97366.69;607885;233;73565;-66
2021/12/21 11:07:43;;;;;;;;;;;;;;;25.12;54.71;97372.34;607949;233;66547;-66
2021/12/21 11:10:15;;;;;;;;;;;;;;;25.11;54.12;97376.93;607532;233;62960;-66
2021/12/21 11:12:44;;;;;;;;;;;;;;;25.13;54.52;97376.66;607019;233;47783;-67
2021/12/21 11:15:13;;;;;;;;;;;;;;;25.14;55.14;97370.17;607986;233;66643;-66
2021/12/21 11:17:40;;;;;;;;;;;;;;;25.14;55.09;97379.04;607976;233;64928;-65
2021/12/21 11:20:09;;;;;;;;;;;;;;;25.16;55.50;97368.03;607876;233;65480;-65
2021/12/21 11:22:38;;;;;;;;;;;;;;;25.14;54.60;97367.48;608005;233;68730;-65
2021/12/21 11:25:06;;;;;;;;;;;;;;;25.13;54.68;97365.90;607966;233;65031;-65
2021/12/21 11:27:35;;;;;;;;;;;;;;;25.14;54.09;97359.42;607925;233;68798;-65
2021/12/21 11:30:04;;;;;;;;;;;;;;;25.16;53.95;97362.66;607933;233;68584;-65
2021/12/21 11:32:34;;;;;;;;;;;;;;;25.17;54.78;97361.55;607915;233;62501;-65
2021/12/21 11:37:41;;;;;;;;;;;;;;;25.16;54.30;97344.62;607931;233;68250;-66
2021/12/21 11:40:10;;;;;;;;;;;;;;;25.17;55.06;97356.17;607900;233;64756;-66
2021/12/21 11:42:48;;;;;;;;;;;;;;;25.13;55.41;97355.14;607973;233;68822;-66
2021/12/21 11:45:17;;;;;;;;;;;;;;;25.10;57.63;97356.52;607687;233;66894;-66
2021/12/21 11:47:55;;;;;;;;;;;;;;;25.07;57.08;97351.69;607764;233;63559;-64
2021/12/21 11:50:23;;;;;;;;;;;;;;;25.08;57.02;97364.06;601985;233;68613;-69
2021/12/21 11:52:52;;;;;;;;;;;;;;;25.11;55.50;97360.80;608444;233;68677;-67
2021/12/21 11:55:23;;;;;;;;;;;;;;;25.14;55.68;97362.91;607838;233;67873;-69
2021/12/21 11:57:55;;;;;;;;;;;;;;;25.17;55.28;97362.34;608272;233;66379;-68
2021/12/21 12:00:30;;;;;;;;;;;;;;;25.20;55.68;97360.97;608654;232;68715;-67
2021/12/21 12:02:59;;;;;;;;;;;;;;;25.21;55.73;97371.45;610256;232;64981;-67
2021/12/21 12:05:29;;;;;;;;;;;;;;;25.22;56.98;97372.25;609092;232;68601;-63
2021/12/21 12:08:06;;;;;;;;;;;;;;;25.21;56.22;97376.04;610145;232;68455;-62
2021/12/21 12:10:38;;;;;;;;;;;;;;;25.22;56.57;97375.73;610157;232;44627;-65
2021/12/21 12:13:13;;;;;;;;;;;;;;;25.23;55.53;97382.70;609336;232;68871;-66
2021/12/21 12:15:41;;;;;;;;;;;;;;;25.27;56.70;97377.56;609929;232;69626;-66
2021/12/21 12:18:10;;;;;;;;;;;;;;;25.27;58.01;97369.49;610242;232;65141;-66
2021/12/21 12:20:37;;;;;;;;;;;;;;;25.28;56.17;97371.08;609913;232;68800;-65
2021/12/21 12:23:06;;;;;;;;;;;;;;;25.29;56.27;97370.02;610181;232;66662;-67
2021/12/21 12:25:35;;;;;;;;;;;;;;;25.32;55.31;97363.22;610242;232;63100;-67
2021/12/21 12:28:05;;;;;;;;;;;;;;;25.32;56.12;97365.91;610216;232;66598;-66
2021/12/21 12:30:43;;;;;;;;;;;;;;;25.33;56.42;97376.39;565697;249;39188;-66
2021/12/21 12:33:11;;;;;;;;;;;;;;;25.35;55.99;97373.42;565558;250;65019;-67
2021/12/21 12:35:40;;;;;;;;;;;;;;;25.35;55.98;97370.73;565720;250;68832;-65
2021/12/21 12:38:08;;;;;;;;;;;;;;;25.35;55.91;97376.91;565230;250;74188;-66
2021/12/21 12:40:39;;;;;;;;;;;;;;;25.37;55.40;97377.43;565469;250;64947;-67
2021/12/21 12:43:10;;;;;;;;;;;;;;;25.27;56.72;97382.94;565566;250;68866;-67
2021/12/21 12:45:42;;;;;;;;;;;;;;;25.19;53.76;97387.08;565748;250;47583;-68
2021/12/21 12:48:29;;;;;;;;;;;;;;;25.26;57.50;97386.70;565779;250;65237;-68
2021/12/21 12:50:56;;;;;;;;;;;;;;;25.30;57.49;97373.50;565708;250;68695;-65
2021/12/21 12:53:26;;;;;;;;;;;;;;;25.30;56.37;97387.73;565761;250;66222;-66
2021/12/21 12:55:58;;;;;;;;;;;;;;;25.27;54.78;97384.84;574938;244;65166;-67
2021/12/21 12:58:27;;;;;;;;;;;;;;;25.32;53.78;97388.26;579799;244;68875;-67
2021/12/21 13:01:03;;;;;;;;;;;;;;;25.35;55.17;97384.98;579623;244;69131;-67
2021/12/21 13:03:33;;;;;;;;;;;;;;;25.36;56.63;97386.57;579833;244;65156;-67
2021/12/21 13:06:01;;;;;;;;;;;;;;;25.38;55.86;97397.85;579769;244;66741;-67
2021/12/21 13:08:30;;;;;;;;;;;;;;;25.39;55.63;97398.64;579738;244;68899;-68
2021/12/21 13:10:58;;;;;;;;;;;;;;;25.40;55.16;97403.75;579809;244;62861;-67
2021/12/21 13:13:33;;;;;;;;;;;;;;;25.41;56.96;97405.34;579792;244;69082;-66
2021/12/21 13:16:04;;;;;;;;;;;;;;;25.41;56.01;97405.34;579771;244;68702;-67
2021/12/21 13:18:32;;;;;;;;;;;;;;;25.42;55.84;97411.52;579807;243;65351;-61
2021/12/21 13:21:00;;;;;;;;;;;;;;;25.44;55.84;97420.90;579732;244;68572;-59
2021/12/21 13:23:31;;;;;;;;;;;;;;;25.36;56.36;97429.62;579672;244;68538;-62
2021/12/21 13:26:01;;;;;;;;;;;;;;;25.36;54.89;97424.23;579755;244;65151;-62
2021/12/21 13:28:29;;;;;;;;;;;;;;;25.42;55.60;97423.07;580124;242;69203;-68
2021/12/21 13:30:58;;;;;;;;;;;;;;;25.43;54.55;97422.00;584562;242;68760;-66
2021/12/21 13:33:27;;;;;;;;;;;;;;;25.45;56.06;97438.66;584606;242;63670;-66
2021/12/21 13:35:57;;;;;;;;;;;;;;;25.46;55.24;97437.56;584373;242;66674;-66
2021/12/21 13:38:25;;;;;;;;;;;;;;;25.47;55.41;97436.45;584576;242;68553;-64
2021/12/21 13:41:01;;;;;;;;;;;;;;;25.43;58.57;97448.11;584552;242;65084;-64
2021/12/21 13:43:28;;;;;;;;;;;;;;;25.44;57.29;97453.19;584513;242;68768;-65
2021/12/21 13:46:00;;;;;;;;;;;;;;;25.46;55.20;97445.63;584567;242;68734;-65
2021/12/21 13:48:29;;;;;;;;;;;;;;;25.46;54.85;97434.88;584554;242;64937;-65
2021/12/21 13:50:58;;;;;;;;;;;;;;;25.46;57.13;97456.39;584611;242;66583;-66